createdAt,value
2018-12-03T00:01:31.588Z,1.93
2018-12-03T00:04:05.455Z,2.13
2018-12-03T00:06:33.476Z,2.03
2018-12-03T00:09:01.444Z,1.90
2018-12-03T00:11:29.346Z,1.20
2018-12-03T00:13:57.252Z,1.40
2018-12-03T00:16:25.135Z,1.50
2018-12-03T00:18:53.094Z,2.20
2018-12-03T00:21:20.969Z,1.70
2018-12-03T00:23:48.930Z,1.83
2018-12-03T00:26:16.772Z,1.47
2018-12-03T00:28:44.775Z,2.60
2018-12-03T00:31:12.642Z,1.90
2018-12-03T00:33:40.569Z,1.00
2018-12-03T00:36:08.523Z,1.50
2018-12-03T00:38:36.407Z,1.10
2018-12-03T00:41:04.412Z,1.70
2018-12-03T00:43:32.385Z,1.60
2018-12-03T00:46:00.237Z,1.60
2018-12-03T00:48:28.227Z,2.10
2018-12-03T00:50:56.123Z,1.83
2018-12-03T00:53:24.041Z,1.63
2018-12-03T00:55:52.418Z,1.47
2018-12-03T00:58:20.407Z,1.20
2018-12-03T01:00:48.234Z,2.20
2018-12-03T01:03:16.223Z,1.40
2018-12-03T01:05:44.110Z,1.40
2018-12-03T01:08:12.074Z,2.13
2018-12-03T01:10:39.998Z,1.93
2018-12-03T01:13:07.900Z,1.63
2018-12-03T01:15:35.779Z,2.43
2018-12-03T01:18:03.770Z,2.10
2018-12-03T01:20:31.747Z,1.80
2018-12-03T01:22:59.624Z,1.70
2018-12-03T01:25:27.485Z,2.03
2018-12-03T01:27:55.395Z,1.30
2018-12-03T01:30:23.259Z,1.37
2018-12-03T01:32:51.278Z,1.80
2018-12-03T01:35:19.182Z,1.50
2018-12-03T01:37:47.151Z,1.13
2018-12-03T01:40:15.079Z,1.10
2018-12-03T01:42:43.016Z,1.00
2018-12-03T01:45:11.515Z,1.10
2018-12-03T01:47:39.558Z,1.27
2018-12-03T01:50:08.192Z,0.93
2018-12-03T01:52:36.113Z,1.40
2018-12-03T01:55:04.823Z,1.03
2018-12-03T01:57:32.769Z,1.60
2018-12-03T02:00:00.623Z,1.60
2018-12-03T02:02:28.615Z,0.97
2018-12-03T02:04:56.521Z,1.53
2018-12-03T02:07:24.467Z,0.60
2018-12-03T02:09:52.323Z,0.67
2018-12-03T02:12:20.266Z,0.80
2018-12-03T02:14:48.176Z,0.80
2018-12-03T02:17:16.230Z,0.40
2018-12-03T02:19:44.107Z,0.30
2018-12-03T02:22:12.039Z,0.70
2018-12-03T02:24:39.894Z,0.80
2018-12-03T02:27:07.862Z,0.47
2018-12-03T02:29:35.735Z,0.70
2018-12-03T02:32:03.741Z,0.67
2018-12-03T02:34:31.617Z,0.60
2018-12-03T02:36:59.642Z,0.77
2018-12-03T02:39:27.539Z,0.70
2018-12-03T02:41:55.482Z,0.83
2018-12-03T02:44:23.413Z,1.23
2018-12-03T02:46:51.350Z,0.97
2018-12-03T02:49:19.218Z,0.90
2018-12-03T02:51:47.170Z,1.23
2018-12-03T02:54:20.007Z,1.43
2018-12-03T02:56:47.935Z,1.60
2018-12-03T02:59:15.804Z,1.07
2018-12-03T03:01:43.738Z,1.80
2018-12-03T03:04:11.614Z,1.13
2018-12-03T03:06:39.605Z,1.73
2018-12-03T03:09:08.961Z,1.73
2018-12-03T03:11:36.864Z,1.40
2018-12-03T03:14:04.785Z,1.33
2018-12-03T03:16:32.762Z,2.33
2018-12-03T03:19:00.590Z,1.30
2018-12-03T03:21:28.502Z,3.00
2018-12-03T03:23:56.374Z,3.50
2018-12-03T03:26:24.418Z,3.73
2018-12-03T03:28:52.274Z,3.30
2018-12-03T03:31:20.195Z,2.33
2018-12-03T03:33:48.060Z,3.07
2018-12-03T03:36:16.007Z,2.47
2018-12-03T03:38:43.871Z,2.40
2018-12-03T03:41:11.782Z,2.77
2018-12-03T03:43:39.655Z,3.03
2018-12-03T03:46:07.606Z,2.80
2018-12-03T03:48:35.491Z,5.73
2018-12-03T03:51:03.489Z,4.83
2018-12-03T03:53:31.358Z,4.00
2018-12-03T03:55:59.273Z,3.73
2018-12-03T03:58:27.177Z,4.27
2018-12-03T04:00:55.123Z,2.53
2018-12-03T04:03:22.993Z,5.43
2018-12-03T04:05:50.950Z,5.40
2018-12-03T04:08:18.808Z,7.17
2018-12-03T04:10:46.751Z,4.87
2018-12-03T04:13:14.611Z,4.27
2018-12-03T04:15:42.548Z,4.90
2018-12-03T04:18:10.443Z,3.40
2018-12-03T04:20:38.416Z,5.00
2018-12-03T04:23:06.327Z,4.53
2018-12-03T04:25:34.269Z,4.87
2018-12-03T04:28:02.135Z,4.17
2018-12-03T04:30:30.129Z,5.63
2018-12-03T04:32:58.016Z,6.07
2018-12-03T04:35:26.451Z,4.77
2018-12-03T04:37:54.354Z,5.33
2018-12-03T04:40:22.305Z,4.80
2018-12-03T04:42:50.156Z,5.57
2018-12-03T04:45:18.271Z,4.60
2018-12-03T04:47:49.402Z,4.03
2018-12-03T04:50:18.737Z,5.03
2018-12-03T04:52:46.665Z,5.93
2018-12-03T04:55:15.232Z,4.90
2018-12-03T04:57:43.139Z,5.30
2018-12-03T05:00:11.793Z,5.67
2018-12-03T05:02:39.674Z,5.80
2018-12-03T05:05:07.988Z,5.00
2018-12-03T05:07:35.909Z,4.13
2018-12-03T05:10:05.599Z,4.87
2018-12-03T05:12:33.471Z,4.50
2018-12-03T05:15:01.480Z,5.20
2018-12-03T05:17:29.349Z,5.87
2018-12-03T05:19:57.278Z,4.43
2018-12-03T05:22:25.184Z,5.33
2018-12-03T05:24:53.134Z,5.00
2018-12-03T05:27:20.999Z,6.13
2018-12-03T05:29:48.943Z,6.13
2018-12-03T05:32:16.827Z,6.73
2018-12-03T05:34:44.785Z,5.47
2018-12-03T05:37:12.634Z,5.40
2018-12-03T05:39:40.603Z,4.00
2018-12-03T05:42:08.453Z,4.33
2018-12-03T05:44:37.389Z,5.30
2018-12-03T05:47:05.245Z,4.90
2018-12-03T05:49:33.230Z,4.83
2018-12-03T05:52:01.103Z,4.73
2018-12-03T05:54:29.042Z,6.70
2018-12-03T05:56:56.918Z,5.50
2018-12-03T05:59:24.930Z,4.00
2018-12-03T06:01:52.816Z,4.40
2018-12-03T06:04:20.700Z,4.63
2018-12-03T06:09:26.036Z,3.60
2018-12-03T06:11:53.872Z,4.63
2018-12-03T06:14:21.805Z,4.13
2018-12-03T06:16:49.667Z,4.57
2018-12-03T06:19:17.578Z,5.90
2018-12-03T06:21:45.498Z,4.07
2018-12-03T06:24:13.398Z,4.03
2018-12-03T06:26:41.319Z,4.73
2018-12-03T06:29:09.260Z,5.33
2018-12-03T06:31:37.217Z,5.03
2018-12-03T06:34:05.155Z,4.77
2018-12-03T06:36:33.195Z,4.97
2018-12-03T06:39:01.031Z,5.33
2018-12-03T06:41:28.957Z,4.27
2018-12-03T06:43:56.809Z,4.80
2018-12-03T06:46:24.680Z,5.00
2018-12-03T06:48:52.701Z,5.80
2018-12-03T06:51:20.671Z,4.10
2018-12-03T06:53:48.523Z,5.37
2018-12-03T06:56:16.479Z,5.43
2018-12-03T06:58:44.346Z,6.23
2018-12-03T07:01:12.289Z,4.20
2018-12-03T07:03:40.170Z,5.43
2018-12-03T07:06:08.141Z,5.47
2018-12-03T07:08:35.987Z,5.00
2018-12-03T07:11:04.008Z,6.13
2018-12-03T07:13:31.911Z,6.40
2018-12-03T07:15:59.847Z,5.97
2018-12-03T07:18:27.740Z,6.57
2018-12-03T07:20:55.632Z,5.10
2018-12-03T07:23:23.542Z,5.73
2018-12-03T07:25:51.467Z,5.70
2018-12-03T07:28:19.348Z,5.30
2018-12-03T07:30:47.337Z,5.67
2018-12-03T07:33:15.272Z,4.43
2018-12-03T07:35:43.357Z,6.27
2018-12-03T07:38:11.343Z,5.90
2018-12-03T07:40:39.325Z,4.83
2018-12-03T07:43:07.168Z,6.50
2018-12-03T07:45:35.099Z,6.03
2018-12-03T07:48:02.975Z,5.63
2018-12-03T07:50:30.966Z,6.93
2018-12-03T07:52:58.836Z,6.23
2018-12-03T07:55:26.846Z,5.57
2018-12-03T07:57:55.534Z,5.80
2018-12-03T08:00:26.401Z,7.40
2018-12-03T08:02:54.247Z,7.97
2018-12-03T08:05:22.152Z,8.37
2018-12-03T08:07:50.015Z,7.53
2018-12-03T08:10:18.036Z,5.97
2018-12-03T08:12:46.358Z,4.80
2018-12-03T08:15:15.653Z,5.63
2018-12-03T08:17:44.290Z,5.13
2018-12-03T08:20:15.120Z,6.93
2018-12-03T08:22:42.978Z,5.83
2018-12-03T08:25:10.894Z,6.33
2018-12-03T08:27:38.745Z,6.13
2018-12-03T08:30:08.484Z,5.23
2018-12-03T08:32:36.336Z,5.87
2018-12-03T08:35:05.174Z,5.60
2018-12-03T08:37:33.053Z,4.70
2018-12-03T08:40:00.990Z,4.60
2018-12-03T08:42:28.880Z,4.83
2018-12-03T08:44:56.847Z,6.73
2018-12-03T08:47:24.783Z,6.93
2018-12-03T08:49:52.801Z,6.33
2018-12-03T08:52:20.715Z,4.77
2018-12-03T08:54:48.694Z,6.17
2018-12-03T08:57:16.580Z,6.33
2018-12-03T08:59:44.574Z,6.77
2018-12-03T09:02:12.479Z,5.87
2018-12-03T09:04:40.363Z,6.00
2018-12-03T09:07:08.270Z,5.87
2018-12-03T09:09:36.161Z,6.20
2018-12-03T09:12:04.317Z,5.83
2018-12-03T09:14:33.205Z,7.00
2018-12-03T09:17:02.522Z,5.70
2018-12-03T09:19:29.102Z,6.30
2018-12-03T09:21:57.001Z,6.23
2018-12-03T09:24:24.941Z,4.90
2018-12-03T09:26:52.817Z,5.00
2018-12-03T09:29:20.795Z,5.23
2018-12-03T09:31:48.670Z,6.17
2018-12-03T09:34:16.551Z,5.57
2018-12-03T09:36:44.417Z,5.57
2018-12-03T09:39:16.493Z,4.87
2018-12-03T09:41:44.656Z,4.93
2018-12-03T09:44:12.553Z,5.90
2018-12-03T09:46:40.500Z,6.60
2018-12-03T09:49:08.401Z,4.87
2018-12-03T09:51:36.647Z,5.77
2018-12-03T09:54:06.327Z,5.03
2018-12-03T09:56:36.926Z,5.67
2018-12-03T09:59:07.553Z,5.00
2018-12-03T10:01:35.446Z,4.60
2018-12-03T10:04:03.874Z,5.37
2018-12-03T10:06:31.786Z,5.47
2018-12-03T10:08:59.650Z,5.00
2018-12-03T10:11:27.527Z,5.90
2018-12-03T10:13:55.421Z,4.97
2018-12-03T10:16:23.319Z,5.00
2018-12-03T10:18:51.214Z,5.13
2018-12-03T10:21:19.119Z,3.60
2018-12-03T10:23:47.034Z,4.00
2018-12-03T10:26:14.910Z,4.57
2018-12-03T10:28:42.846Z,4.70
2018-12-03T10:31:11.475Z,4.47
2018-12-03T10:33:39.389Z,5.40
2018-12-03T10:36:07.643Z,4.73
2018-12-03T10:38:36.441Z,5.70
2018-12-03T10:41:09.056Z,4.10
2018-12-03T10:43:37.013Z,4.43
2018-12-03T10:46:05.672Z,3.87
2018-12-03T10:48:33.515Z,3.77
2018-12-03T10:51:01.407Z,4.63
2018-12-03T10:53:30.047Z,4.37
2018-12-03T10:55:57.920Z,3.23
2018-12-03T10:58:25.822Z,3.50
2018-12-03T11:01:02.420Z,3.50
2018-12-03T11:03:35.758Z,3.13
2018-12-03T11:06:09.237Z,3.27
2018-12-03T11:08:37.177Z,3.13
2018-12-03T11:11:05.173Z,3.50
2018-12-03T11:13:33.089Z,3.83
2018-12-03T11:16:01.052Z,4.50
2018-12-03T11:18:29.438Z,3.07
2018-12-03T11:21:01.808Z,4.77
2018-12-03T11:23:34.434Z,3.27
2018-12-03T11:25:57.745Z,3.13
2018-12-03T11:28:27.898Z,4.60
2018-12-03T11:30:55.823Z,4.00
2018-12-03T11:33:28.084Z,3.37
2018-12-03T11:35:56.886Z,3.50
2018-12-03T11:38:29.116Z,2.73
2018-12-03T11:40:57.197Z,3.43
2018-12-03T11:43:25.701Z,4.13
2018-12-03T11:45:53.668Z,3.57
2018-12-03T11:48:21.550Z,3.23
2018-12-03T11:50:49.439Z,2.97
2018-12-03T11:53:18.368Z,3.60
2018-12-03T11:55:45.326Z,3.13
2018-12-03T11:58:13.200Z,2.90
2018-12-03T12:00:41.160Z,2.20
2018-12-03T12:03:09.031Z,3.17
2018-12-03T12:05:37.017Z,2.17
2018-12-03T12:08:04.963Z,3.57
2018-12-03T12:10:32.994Z,2.63
2018-12-03T12:13:00.938Z,3.00
2018-12-03T12:15:28.884Z,2.87
2018-12-03T12:17:56.778Z,2.73
2018-12-03T12:20:24.702Z,2.23
2018-12-03T12:22:52.572Z,2.70
2018-12-03T12:25:20.540Z,2.90
2018-12-03T12:27:50.511Z,2.40
2018-12-03T12:30:18.433Z,3.93
2018-12-03T12:32:46.343Z,3.47
2018-12-03T12:35:14.269Z,2.40
2018-12-03T12:37:42.146Z,3.10
2018-12-03T12:40:10.822Z,2.90
2018-12-03T12:42:38.977Z,2.83
2018-12-03T12:45:10.695Z,2.77
2018-12-03T12:47:38.581Z,3.03
2018-12-03T12:50:08.413Z,2.00
2018-12-03T12:52:36.417Z,3.13
2018-12-03T12:55:04.519Z,3.33
2018-12-03T12:57:32.411Z,2.53
2018-12-03T13:00:00.264Z,1.70
2018-12-03T13:02:28.121Z,1.80
2018-12-03T13:04:55.996Z,2.23
2018-12-03T13:07:23.885Z,1.53
2018-12-03T13:09:51.765Z,0.83
2018-12-03T13:12:19.684Z,1.07
2018-12-03T13:14:47.599Z,1.17
2018-12-03T13:17:15.523Z,2.30
2018-12-03T13:19:43.454Z,1.37
2018-12-03T13:22:11.326Z,1.23
2018-12-03T13:24:39.298Z,1.10
2018-12-03T13:27:07.195Z,1.00
2018-12-03T13:29:35.082Z,1.37
2018-12-03T13:32:02.999Z,1.73
2018-12-03T13:34:34.395Z,1.23
2018-12-03T13:36:58.874Z,1.70
2018-12-03T13:39:26.783Z,1.40
2018-12-03T13:41:54.660Z,1.10
2018-12-03T13:44:22.532Z,1.10
2018-12-03T13:46:50.407Z,1.80
2018-12-03T13:49:18.359Z,1.80
2018-12-03T13:51:46.235Z,1.27
2018-12-03T13:54:14.162Z,1.10
2018-12-03T13:56:42.040Z,1.60
2018-12-03T13:59:09.936Z,2.17
2018-12-03T14:01:38.375Z,1.63
2018-12-03T14:04:11.719Z,1.93
2018-12-03T14:06:45.167Z,2.13
2018-12-03T14:09:22.115Z,2.70
2018-12-03T14:11:55.587Z,1.40
2018-12-03T14:14:28.198Z,3.03
2018-12-03T14:17:05.393Z,2.03
2018-12-03T14:19:33.351Z,2.43
2018-12-03T14:22:03.529Z,2.40
2018-12-03T14:24:31.376Z,2.03
2018-12-03T14:26:59.230Z,2.17
2018-12-03T14:29:27.116Z,2.63
2018-12-03T14:31:55.008Z,1.80
2018-12-03T14:34:23.789Z,2.33
2018-12-03T14:36:51.715Z,2.00
2018-12-03T14:39:19.614Z,2.73
2018-12-03T14:41:47.554Z,2.43
2018-12-03T14:44:15.471Z,3.33
2018-12-03T14:46:43.378Z,2.40
2018-12-03T14:49:11.278Z,2.60
2018-12-03T14:51:39.170Z,2.53
2018-12-03T14:54:07.025Z,3.20
2018-12-03T14:56:34.883Z,2.30
2018-12-03T14:59:02.793Z,2.77
2018-12-03T15:01:30.696Z,2.20
2018-12-03T15:03:58.738Z,5.03
2018-12-03T15:06:26.584Z,2.90
2018-12-03T15:08:54.433Z,2.97
2018-12-03T15:11:22.341Z,3.37
2018-12-03T15:13:50.218Z,3.40
2018-12-03T15:16:18.095Z,2.73
2018-12-03T15:18:47.067Z,3.40
2018-12-03T15:21:14.930Z,2.67
2018-12-03T15:23:42.782Z,2.57
2018-12-03T15:26:10.691Z,2.80
2018-12-03T15:28:38.567Z,2.43
2018-12-03T15:31:06.497Z,3.40
2018-12-03T15:33:34.390Z,2.43
2018-12-03T15:36:02.302Z,2.43
2018-12-03T15:38:30.305Z,5.30
2018-12-03T15:40:58.201Z,3.07
2018-12-03T15:43:26.221Z,2.70
2018-12-03T15:45:54.085Z,2.80
2018-12-03T15:48:21.996Z,2.60
2018-12-03T15:50:49.858Z,3.23
2018-12-03T15:53:17.861Z,3.73
2018-12-03T15:55:45.731Z,3.43
2018-12-03T15:58:13.729Z,3.17
2018-12-03T16:00:41.614Z,2.83
2018-12-03T16:03:09.560Z,3.47
2018-12-03T16:05:37.524Z,2.90
2018-12-03T16:08:05.473Z,2.30
2018-12-03T16:10:33.353Z,3.50
2018-12-03T16:13:01.288Z,4.37
2018-12-03T16:15:29.187Z,3.70
2018-12-03T16:17:57.131Z,3.03
2018-12-03T16:20:25.032Z,3.13
2018-12-03T16:22:53.022Z,3.30
2018-12-03T16:25:20.906Z,3.07
2018-12-03T16:27:48.945Z,3.53
2018-12-03T16:30:18.363Z,3.60
2018-12-03T16:32:46.279Z,3.47
2018-12-03T16:35:14.199Z,3.23
2018-12-03T16:37:42.152Z,4.50
2018-12-03T16:40:10.039Z,2.87
2018-12-03T16:42:37.958Z,4.20
2018-12-03T16:45:06.486Z,3.63
2018-12-03T16:47:38.021Z,3.37
2018-12-03T16:50:06.982Z,4.10
2018-12-03T16:52:42.864Z,3.90
2018-12-03T16:55:10.731Z,5.60
2018-12-03T16:57:40.718Z,4.47
2018-12-03T17:00:10.289Z,4.20
2018-12-03T17:02:39.265Z,3.43
2018-12-03T17:05:07.120Z,3.97
2018-12-03T17:07:36.054Z,4.30
2018-12-03T17:10:05.385Z,3.93
2018-12-03T17:12:33.350Z,4.03
2018-12-03T17:15:01.206Z,3.53
2018-12-03T17:17:29.224Z,4.20
2018-12-03T17:19:57.094Z,4.47
2018-12-03T17:22:28.414Z,3.87
2018-12-03T17:24:56.287Z,4.50
2018-12-03T17:27:24.219Z,4.00
2018-12-03T17:29:52.148Z,4.33
2018-12-03T17:32:25.600Z,3.80
2018-12-03T17:34:53.512Z,4.90
2018-12-03T17:37:22.482Z,4.33
2018-12-03T17:39:50.329Z,3.93
2018-12-03T17:42:18.288Z,4.53
2018-12-03T17:44:46.196Z,4.13
2018-12-03T17:47:16.234Z,5.37
2018-12-03T17:49:44.157Z,5.20
2018-12-03T17:52:12.113Z,4.63
2018-12-03T17:54:39.987Z,6.03
2018-12-03T17:57:07.972Z,4.50
2018-12-03T17:59:35.954Z,5.30
2018-12-03T18:02:03.923Z,5.63
2018-12-03T18:04:31.895Z,5.60
2018-12-03T18:07:35.522Z,5.30
2018-12-03T18:10:04.223Z,4.90
2018-12-03T18:12:32.452Z,3.23
2018-12-03T18:15:02.602Z,5.43
2018-12-03T18:17:30.453Z,4.77
2018-12-03T18:20:02.852Z,4.20
2018-12-03T18:22:31.678Z,5.10
2018-12-03T18:25:04.532Z,6.20
2018-12-03T18:27:32.800Z,4.87
2018-12-03T18:30:01.011Z,5.23
2018-12-03T18:32:29.021Z,5.83
2018-12-03T18:34:57.013Z,5.67
2018-12-03T18:37:25.102Z,6.33
2018-12-03T18:39:53.111Z,6.73
2018-12-03T18:42:20.979Z,5.37
2018-12-03T18:44:52.904Z,6.30
2018-12-03T18:47:21.086Z,4.77
2018-12-03T18:49:50.145Z,5.60
2018-12-03T18:52:19.164Z,6.77
2018-12-03T18:54:47.077Z,4.47
2018-12-03T18:57:15.385Z,3.87
2018-12-03T18:59:43.411Z,3.03
2018-12-03T19:02:11.497Z,3.70
2018-12-03T19:04:39.521Z,2.13
2018-12-03T19:07:07.820Z,3.17
2018-12-03T19:09:35.683Z,3.50
2018-12-03T19:12:04.198Z,3.70
2018-12-03T19:14:32.076Z,2.73
2018-12-03T19:16:59.992Z,2.77
2018-12-03T19:19:27.997Z,1.83
2018-12-03T19:21:56.374Z,3.00
2018-12-03T19:24:24.247Z,1.27
2018-12-03T19:26:54.454Z,1.67
2018-12-03T19:29:22.557Z,1.53
2018-12-03T19:31:50.837Z,1.83
2018-12-03T19:34:19.123Z,2.50
2018-12-03T19:36:49.407Z,2.23
2018-12-03T19:39:17.504Z,1.80
2018-12-03T19:41:50.479Z,2.03
2018-12-03T19:44:18.531Z,3.07
2018-12-03T19:46:48.660Z,2.07
2018-12-03T19:49:17.509Z,2.10
2018-12-03T19:51:49.066Z,2.40
2018-12-03T19:54:17.600Z,1.13
2018-12-03T19:56:49.132Z,1.20
2018-12-03T19:59:17.205Z,1.27
2018-12-03T20:01:46.298Z,1.00
2018-12-03T20:07:02.081Z,0.80
2018-12-03T20:09:30.191Z,0.70
2018-12-03T20:11:59.505Z,0.50
2018-12-03T20:14:27.361Z,0.77
2018-12-03T20:16:57.386Z,1.13
2018-12-03T20:19:25.353Z,0.80
2018-12-03T20:21:55.863Z,1.13
2018-12-03T20:24:24.630Z,0.57
2018-12-03T20:26:59.760Z,0.93
2018-12-03T20:29:30.008Z,1.07
2018-12-03T20:33:05.989Z,1.00
2018-12-03T20:35:39.653Z,0.67
2018-12-03T20:38:09.856Z,1.07
2018-12-03T20:40:43.831Z,1.47
2018-12-03T20:43:15.220Z,0.80
2018-12-03T20:45:47.030Z,0.77
2018-12-03T20:48:15.669Z,0.80
2018-12-03T20:50:48.848Z,1.47
2018-12-03T20:53:19.156Z,1.00
2018-12-03T20:55:49.494Z,0.73
2018-12-03T20:58:17.385Z,0.97
2018-12-03T21:00:45.449Z,0.67
2018-12-03T21:03:13.519Z,1.03
2018-12-03T21:05:42.602Z,1.27
2018-12-03T21:08:10.438Z,0.93
2018-12-03T21:10:39.567Z,1.33
2018-12-03T21:13:07.641Z,2.10
2018-12-03T21:15:35.672Z,2.13
2018-12-03T21:18:03.533Z,1.50
2018-12-03T21:20:37.795Z,0.90
2018-12-03T21:23:05.673Z,0.93
2018-12-03T21:25:38.251Z,1.00
2018-12-03T21:28:06.327Z,0.70
2018-12-03T21:30:38.021Z,0.90
2018-12-03T21:33:05.993Z,1.33
2018-12-03T21:35:34.207Z,1.30
2018-12-03T21:38:02.517Z,0.73
2018-12-03T21:40:31.542Z,1.10
2018-12-03T21:42:59.453Z,0.77
2018-12-03T21:45:28.559Z,1.27
2018-12-03T21:47:56.464Z,0.87
2018-12-03T21:50:24.687Z,0.80
2018-12-03T21:52:52.729Z,0.50
2018-12-03T21:55:26.543Z,0.70
2018-12-03T21:57:54.995Z,0.50
2018-12-03T22:00:23.098Z,0.40
2018-12-03T22:02:51.384Z,0.30
2018-12-03T22:05:19.673Z,0.73
2018-12-03T22:07:47.741Z,0.53
2018-12-03T22:10:27.203Z,0.40
2018-12-03T22:12:55.170Z,0.40
2018-12-03T22:15:31.171Z,0.30
2018-12-03T22:17:59.257Z,0.60
2018-12-03T22:20:31.803Z,0.33
2018-12-03T22:22:59.640Z,1.13
2018-12-03T22:25:40.692Z,0.67
2018-12-03T22:28:08.773Z,0.90
2018-12-03T22:30:46.164Z,0.73
2018-12-03T22:33:14.300Z,0.60
2018-12-03T22:35:42.599Z,0.70
2018-12-03T22:38:10.412Z,0.60
2018-12-03T22:40:39.741Z,0.40
2018-12-03T22:43:07.630Z,0.70
2018-12-03T22:45:40.614Z,0.33
2018-12-03T22:48:08.478Z,1.13
2018-12-03T22:50:37.748Z,0.30
2018-12-03T22:53:05.823Z,0.63
2018-12-03T22:55:37.625Z,0.30
2018-12-03T22:58:05.659Z,0.40
2018-12-03T23:00:37.001Z,0.20
2018-12-03T23:03:05.282Z,0.97
2018-12-03T23:05:53.718Z,0.30
2018-12-03T23:08:28.757Z,1.30
2018-12-03T23:10:58.268Z,1.13
2018-12-03T23:13:26.212Z,1.13
2018-12-03T23:15:54.145Z,0.40
2018-12-03T23:18:22.168Z,0.63
2018-12-03T23:20:50.202Z,0.70
2018-12-03T23:23:18.208Z,0.50
2018-12-03T23:25:46.171Z,1.00
2018-12-03T23:28:14.132Z,0.73
2018-12-03T23:30:42.040Z,0.40
2018-12-03T23:33:10.064Z,1.20
2018-12-03T23:35:38.107Z,0.57
2018-12-03T23:38:06.131Z,0.60
2018-12-03T23:40:33.997Z,0.60
2018-12-03T23:43:02.008Z,0.60
2018-12-03T23:45:29.836Z,1.00
2018-12-03T23:47:57.707Z,0.50
2018-12-03T23:50:25.599Z,0.60
2018-12-03T23:52:53.448Z,0.93
2018-12-03T23:55:21.262Z,0.90
2018-12-03T23:57:49.193Z,1.40
